Hlavní strana
METAR-TAF:

METAR-TAF

Letiště :

Hohenfels, Německo

zeměpisná šířka: 49-13N, zeměpisná délka: 011-50E, výška: 442 m

Aktuální stav počasí

Zpráva byla vytvořena před 1 hodinou a 8 minutami, v 21:55 UTC
Západní vítr 4 kt
Teplota 13°C
Vlhkost vzduchu 88%
Tlak 1006 hPa
Viditelnost 10 km a více
Skoro jasno ve výšce 3200 ft
Oblačno až skoro zataženo ve výšce 4400 ft
Oblačno až skoro zataženo ve výšce 5500 ft

METAR: ETIH 302155Z AUTO 26004KT 9999 FEW032 BKN044 BKN055 13/11 A2972 RMK AO2 SLP065 T01340109 402090126

Čas: 01:03 (23:03 UTC)


TAF: chybějící

Stav a předpovědi počasí z více než 4 000 letišť (zprávy METAR a TAF).

Červené a žluté tečky na mapě představují dostupné meteorologické stanice.

Když kurzor umístíte na tečku, zobrazí se název stanice.

Pak kliknutím zobrazíte stav a předpověď počasí.

Chcete-li změnit mapu, kliknutím na zelené tlačítko se znaménkem +mapu přiblížíte, kliknutím na zelené tlačítko se znaménkem – mapu oddálíte a kliknutím na zelené šipky přejdete na sousední mapy.


METAR-TAF: